Capitol Logistics 207


KRFD
Chicago/Rockford International Airport
Rockford, Illinois, US
KMIA
Miami International Airport
Miami, Florida, US

Activity Log

Date Flight Route Aircraft Duration
01/13/2020 CPX207 BVT J89 ATL J45 OMN HILEY7 B763 2h 56m
12/31/2019 CPX451 OBK J89 IIU J99 IRQ J53 ORL V159 TRV B738 3h 00m
12/30/2019 CPX207 BVT J89 ATL J45 OMN HILEY7 B763 3h 24m
11/28/2019 CPX451 BVT J89 ATL J45 OMN HILEY7 B738 2h 47m
07/06/2019 CPX207 BVT J89 ATL J45 OMN HILEY7 B763 3h 10m
05/10/2019 CPX207 BVT J89 ATL J45 OMN HILEY7 B763 2h 50m
12/08/2018 CPX351 JOT LVT TAY SSCOT5 B752 2h 46m
11/29/2018 CPX351 JOT LVT TAY SSCOT4 B752 2h 52m

Route Details

Aircraft Information
Primary: Boeing 767-300BDSF
Backup: Not Available
Route Data
Distance: 1160nm
Sched. Duration: 2h 50m
Avg. Duration: 2h 73m (+24m)
Times Flown: 8
Recm'd Route: BVT J89 ATL J45 OMN HILEY7
Planned Altitude: 36,000ft
Origin Wx: KRFD 271654Z 29012KT 10SM SCT030 M02/M09 A3007 RMK AO2 SLP193 T10171089 $
Dest. Wx: KMIA 271653Z 33010G18KT 300V360 10SM FEW030 SCT140 BKN160 BKN180 19/07 A3017 RMK AO2 SLP214 T01890067
Notes:

Financial History
Total Freight: 532,657lbs
Average Load: 66,582lbs/flt
Fuel Used: 417,221lbs
Avg. Fuel Used: 52,153lbs/flt
Fuel Expense: $304,867
Avg. Fuel Expense: $38,108
Avg. Fuel Cost: $0.72/lbs
Total Gross Income: $731,127
Pilot Pay: $972
Total Expenses: $79,378
Total Revenue: $343,200
Average Revenue: $91,390.84